DAL1428 KSLC-KSEA
Flight info
| Callsign | DAL1428 |
|---|---|
| Flight time | N/A |
| Altitude | 34000 |
| Route | CGULL1 TWF PDT CHINS5 |
| Aircraft | B739/M-SDE2E3FGHIRWXY/LB1 |
Departure
| Time | 2026-05-04 21:20 |
|---|---|
| Airport | Salt Lake City International Airport (KSLC) |
Arrival
| Time | N/A |
|---|---|
| Airport | Seattle–Tacoma International Airport (KSEA) |
| Time | Latitude | Longitude | Altitude | Speed | Heading |
|---|---|---|---|---|---|
| 2026-05-04 21:01 | 40.78636 | -111.98375 | 4230 ft | 0 kts | 175° |
| 2026-05-04 21:13 | 40.78638 | -111.98375 | 4230 ft | 2 kts | 175° |
| 2026-05-04 21:13 | 40.78664 | -111.98380 | 4230 ft | 4 kts | 167° |
| 2026-05-04 21:13 | 40.78689 | -111.98390 | 4230 ft | 4 kts | 151° |
| 2026-05-04 21:13 | 40.78708 | -111.98411 | 4230 ft | 4 kts | 109° |
| 2026-05-04 21:14 | 40.78711 | -111.98424 | 4230 ft | 0 kts | 85° |
| 2026-05-04 21:16 | 40.78711 | -111.98416 | 4230 ft | 4 kts | 85° |
| 2026-05-04 21:16 | 40.78716 | -111.98345 | 4230 ft | 12 kts | 84° |
| 2026-05-04 21:16 | 40.78728 | -111.98201 | 4230 ft | 19 kts | 83° |
| 2026-05-04 21:16 | 40.78741 | -111.97993 | 4230 ft | 26 kts | 89° |
| 2026-05-04 21:17 | 40.78754 | -111.97740 | 4230 ft | 24 kts | 98° |
| 2026-05-04 21:17 | 40.78613 | -111.97665 | 4230 ft | 25 kts | 174° |
| 2026-05-04 21:17 | 40.78433 | -111.97641 | 4229 ft | 27 kts | 175° |
| 2026-05-04 21:17 | 40.78235 | -111.97622 | 4229 ft | 29 kts | 175° |
| 2026-05-04 21:18 | 40.78030 | -111.97598 | 4252 ft | 29 kts | 175° |
| 2026-05-04 21:18 | 40.77841 | -111.97533 | 4252 ft | 27 kts | 164° |
| 2026-05-04 21:18 | 40.77658 | -111.97505 | 4251 ft | 26 kts | 176° |
| 2026-05-04 21:18 | 40.77488 | -111.97475 | 4253 ft | 24 kts | 162° |
| 2026-05-04 21:19 | 40.77501 | -111.97332 | 4252 ft | 20 kts | 19° |
| 2026-05-04 21:19 | 40.77712 | -111.97344 | 4252 ft | 57 kts | 354° |
| 2026-05-04 21:19 | 40.78356 | -111.97419 | 4229 ft | 124 kts | 355° |
| 2026-05-04 21:19 | 40.79383 | -111.97545 | 4244 ft | 171 kts | 354° |
| 2026-05-04 21:20 | 40.80632 | -111.97667 | 4674 ft | 188 kts | 347° |
| 2026-05-04 21:20 | 40.81886 | -111.98340 | 4975 ft | 207 kts | 314° |
| 2026-05-04 21:20 | 40.82790 | -111.99808 | 5773 ft | 204 kts | 306° |
| 2026-05-04 21:20 | 40.83663 | -112.01356 | 6431 ft | 214 kts | 307° |
| 2026-05-04 21:21 | 40.84589 | -112.02998 | 6648 ft | 237 kts | 308° |
| 2026-05-04 21:21 | 40.85623 | -112.04829 | 6780 ft | 259 kts | 307° |
| 2026-05-04 21:21 | 40.86739 | -112.06805 | 7027 ft | 275 kts | 306° |
| 2026-05-04 21:21 | 40.87895 | -112.08849 | 7623 ft | 277 kts | 305° |
| 2026-05-04 21:22 | 40.89047 | -112.10882 | 8381 ft | 277 kts | 306° |
| 2026-05-04 21:22 | 40.90217 | -112.12945 | 9001 ft | 281 kts | 304° |
| 2026-05-04 21:22 | 40.91389 | -112.15015 | 9562 ft | 288 kts | 305° |
| 2026-05-04 21:22 | 40.92606 | -112.17160 | 10184 ft | 294 kts | 305° |
| 2026-05-04 21:23 | 40.93874 | -112.19397 | 10370 ft | 316 kts | 306° |
| 2026-05-04 21:23 | 40.95239 | -112.21806 | 10526 ft | 337 kts | 306° |
| 2026-05-04 21:23 | 40.96680 | -112.24347 | 10819 ft | 351 kts | 306° |
| 2026-05-04 21:23 | 40.98157 | -112.26955 | 11366 ft | 356 kts | 306° |
| 2026-05-04 21:24 | 40.99653 | -112.29598 | 12007 ft | 359 kts | 306° |
| 2026-05-04 21:24 | 41.01159 | -112.32260 | 12670 ft | 362 kts | 306° |
| 2026-05-04 21:24 | 41.02663 | -112.34923 | 13411 ft | 363 kts | 307° |
| 2026-05-04 21:24 | 41.04188 | -112.37623 | 14013 ft | 367 kts | 307° |
| 2026-05-04 21:25 | 41.05730 | -112.40349 | 14591 ft | 372 kts | 308° |
| 2026-05-04 21:25 | 41.07500 | -112.42877 | 15219 ft | 375 kts | 318° |
| 2026-05-04 21:25 | 41.09609 | -112.44937 | 15848 ft | 379 kts | 328° |
| 2026-05-04 21:25 | 41.11850 | -112.46754 | 16451 ft | 384 kts | 328° |
| 2026-05-04 21:26 | 41.14138 | -112.48619 | 17028 ft | 388 kts | 328° |
| 2026-05-04 21:26 | 41.16436 | -112.50528 | 17651 ft | 391 kts | 327° |
| 2026-05-04 21:26 | 41.18676 | -112.52596 | 18268 ft | 393 kts | 322° |
| 2026-05-04 21:26 | 41.20822 | -112.54801 | 18830 ft | 395 kts | 321° |
| 2026-05-04 21:27 | 41.22995 | -112.57070 | 19365 ft | 399 kts | 322° |
| 2026-05-04 21:27 | 41.25202 | -112.59345 | 19885 ft | 402 kts | 322° |
| 2026-05-04 21:27 | 41.27422 | -112.61627 | 20439 ft | 405 kts | 321° |
| 2026-05-04 21:27 | 41.29482 | -112.64198 | 20967 ft | 407 kts | 312° |
| 2026-05-04 21:28 | 41.31379 | -112.67013 | 21489 ft | 410 kts | 311° |
| 2026-05-04 21:28 | 41.33252 | -112.69850 | 21994 ft | 414 kts | 312° |
| 2026-05-04 21:28 | 41.35171 | -112.72729 | 22521 ft | 417 kts | 313° |
| 2026-05-04 21:28 | 41.37124 | -112.75613 | 23009 ft | 420 kts | 313° |
| 2026-05-04 21:29 | 41.39101 | -112.78511 | 23471 ft | 424 kts | 313° |
| 2026-05-04 21:29 | 41.41084 | -112.81427 | 23871 ft | 427 kts | 312° |
| 2026-05-04 21:29 | 41.43065 | -112.84417 | 24297 ft | 430 kts | 311° |
| 2026-05-04 21:29 | 41.45029 | -112.87424 | 24734 ft | 432 kts | 311° |
| 2026-05-04 21:30 | 41.46983 | -112.90430 | 25146 ft | 435 kts | 311° |
| 2026-05-04 21:30 | 41.48966 | -112.93486 | 25548 ft | 437 kts | 312° |
| 2026-05-04 21:30 | 41.50963 | -112.96561 | 25982 ft | 439 kts | 312° |
| 2026-05-04 21:30 | 41.52974 | -112.99654 | 26391 ft | 441 kts | 312° |
| 2026-05-04 21:31 | 41.57022 | -113.05879 | 27148 ft | 447 kts | 312° |
| 2026-05-04 21:31 | 41.59069 | -113.09030 | 27530 ft | 450 kts | 312° |
| 2026-05-04 21:31 | 41.61121 | -113.12192 | 27878 ft | 453 kts | 313° |
| 2026-05-04 21:32 | 41.62492 | -113.14305 | 28096 ft | 455 kts | 312° |
| 2026-05-04 21:32 | 41.65270 | -113.18594 | 28603 ft | 458 kts | 313° |
| 2026-05-04 21:32 | 41.66659 | -113.20740 | 28896 ft | 458 kts | 313° |
| 2026-05-04 21:32 | 41.68745 | -113.23966 | 29433 ft | 457 kts | 313° |
| 2026-05-04 21:33 | 41.70810 | -113.27166 | 29978 ft | 454 kts | 313° |
| 2026-05-04 21:33 | 41.72868 | -113.30357 | 30427 ft | 453 kts | 313° |
| 2026-05-04 21:33 | 41.75594 | -113.34588 | 30952 ft | 452 kts | 312° |
| 2026-05-04 21:33 | 41.76982 | -113.36744 | 31237 ft | 451 kts | 312° |
| 2026-05-04 21:34 | 41.79000 | -113.39883 | 31732 ft | 447 kts | 312° |
| 2026-05-04 21:34 | 41.81020 | -113.43030 | 32284 ft | 442 kts | 312° |
| 2026-05-04 21:34 | 41.83025 | -113.46154 | 32593 ft | 444 kts | 311° |
| 2026-05-04 21:34 | 41.85053 | -113.49316 | 32800 ft | 448 kts | 311° |
| 2026-05-04 21:35 | 41.87083 | -113.52485 | 33152 ft | 447 kts | 311° |
| 2026-05-04 21:35 | 41.89111 | -113.55656 | 33586 ft | 444 kts | 311° |
| 2026-05-04 21:35 | 41.91127 | -113.58813 | 33783 ft | 447 kts | 311° |
| 2026-05-04 21:36 | 41.95181 | -113.65167 | 33776 ft | 445 kts | 311° |
| 2026-05-04 21:36 | 41.99173 | -113.71439 | 33788 ft | 439 kts | 311° |
| 2026-05-04 21:37 | 42.03136 | -113.77678 | 33779 ft | 439 kts | 311° |
| 2026-05-04 21:37 | 42.07081 | -113.83902 | 33793 ft | 439 kts | 311° |
| 2026-05-04 21:38 | 42.11051 | -113.90178 | 33786 ft | 440 kts | 311° |
| 2026-05-04 21:38 | 42.15030 | -113.96480 | 33779 ft | 441 kts | 311° |
| 2026-05-04 21:39 | 42.19013 | -114.02790 | 33776 ft | 442 kts | 311° |
| 2026-05-04 21:39 | 42.22990 | -114.09071 | 33761 ft | 443 kts | 311° |
| 2026-05-04 21:40 | 42.26986 | -114.15393 | 33758 ft | 443 kts | 311° |
| 2026-05-04 21:40 | 42.30988 | -114.21743 | 33765 ft | 444 kts | 311° |
| 2026-05-04 21:41 | 42.34996 | -114.28117 | 33758 ft | 444 kts | 312° |
| 2026-05-04 21:41 | 42.38977 | -114.34461 | 33760 ft | 444 kts | 311° |
| 2026-05-04 21:42 | 42.42963 | -114.40833 | 33836 ft | 444 kts | 311° |
| 2026-05-04 21:42 | 42.46944 | -114.47229 | 33839 ft | 443 kts | 311° |
| 2026-05-04 21:43 | 42.51238 | -114.53188 | 33846 ft | 440 kts | 319° |
| 2026-05-04 21:43 | 42.55712 | -114.58831 | 33835 ft | 439 kts | 319° |
| 2026-05-04 21:44 | 42.60141 | -114.64451 | 33797 ft | 438 kts | 319° |
| 2026-05-04 21:44 | 42.64581 | -114.70137 | 33791 ft | 438 kts | 319° |
| 2026-05-04 21:45 | 42.68993 | -114.75818 | 33784 ft | 438 kts | 319° |